Time;durP1;ratioP1;P1;durP2;ratioP2;P2;SDS_P1;SDS_P2;PMS_P1;PMS_P2;Temp;Humidity;BMP_temperature;BMP_pressure;BME280_temperature;BME280_humidity;BME280_pressure;Samples;Min_cycle;Max_cycle;Signal;HPM_P1;HPM_P2
2021/12/03 00:01:39;;;;;;;10.98;6.82;;;;;;;;;;143724;591;47021;-59
2021/12/03 00:04:06;;;;;;;10.38;6.97;;;;;;;;;;143725;581;47012;-59
2021/12/03 00:06:35;;;;;;;10.93;6.55;;;;;;;;;;143728;572;45021;-61
2021/12/03 00:09:05;;;;;;;11.20;6.53;;;;;;;;;;143729;583;46012;-60
2021/12/03 00:11:32;;;;;;;12.20;6.55;;;;;;;;;;143725;569;47022;-60
2021/12/03 00:13:59;;;;;;;9.90;6.10;;;;;;;;;;143724;591;47012;-61
2021/12/03 00:16:26;;;;;;;8.73;5.72;;;;;;;;;;143725;639;45909;-61
2021/12/03 00:18:53;;;;;;;11.95;6.28;;;;;;;;;;143726;569;46020;-61
2021/12/03 00:21:22;;;;;;;8.80;5.40;;;;;;;;;;143725;636;47022;-60
2021/12/03 00:23:49;;;;;;;10.38;6.32;;;;;;;;;;143724;649;47012;-59
2021/12/03 00:26:16;;;;;;;15.80;6.32;;;;;;;;;;143727;607;45020;-61
2021/12/03 00:28:43;;;;;;;9.38;6.10;;;;;;;;;;143729;570;46020;-59
2021/12/03 00:31:10;;;;;;;8.75;5.57;;;;;;;;;;143724;629;47021;-60
2021/12/03 00:33:38;;;;;;;10.27;6.00;;;;;;;;;;143725;571;47012;-60
2021/12/03 00:36:08;;;;;;;10.68;6.37;;;;;;;;;;143726;578;46020;-61
2021/12/03 00:38:40;;;;;;;13.73;6.68;;;;;;;;;;143730;636;46021;-60
2021/12/03 00:41:10;;;;;;;12.13;6.28;;;;;;;;;;143724;566;47022;-61
2021/12/03 00:43:41;;;;;;;10.45;5.30;;;;;;;;;;143720;569;47012;-61
2021/12/03 00:46:10;;;;;;;12.98;5.20;;;;;;;;;;143729;656;45021;-61
2021/12/03 00:48:38;;;;;;;10.85;5.30;;;;;;;;;;143730;660;46020;-61
2021/12/03 00:51:07;;;;;;;10.57;5.53;;;;;;;;;;143725;589;47021;-59
2021/12/03 00:53:34;;;;;;;12.05;5.80;;;;;;;;;;143725;578;47012;-60
2021/12/03 00:56:01;;;;;;;10.02;5.37;;;;;;;;;;143727;651;45020;-61
2021/12/03 00:58:29;;;;;;;12.65;5.30;;;;;;;;;;143729;661;46020;-59
2021/12/03 01:00:55;;;;;;;11.32;4.65;;;;;;;;;;143724;565;47023;-61
2021/12/03 01:03:23;;;;;;;14.13;6.20;;;;;;;;;;143725;641;47012;-60
2021/12/03 01:05:50;;;;;;;9.95;4.95;;;;;;;;;;143725;586;46020;-60
2021/12/03 01:08:17;;;;;;;13.88;6.35;;;;;;;;;;143729;612;46025;-61
2021/12/03 01:10:44;;;;;;;14.27;4.75;;;;;;;;;;143724;589;47020;-60
2021/12/03 01:13:11;;;;;;;9.18;4.97;;;;;;;;;;143723;612;47013;-61
2021/12/03 01:15:41;;;;;;;7.50;4.70;;;;;;;;;;143728;603;45021;-60
2021/12/03 01:18:10;;;;;;;12.70;4.90;;;;;;;;;;143730;581;46012;-61
2021/12/03 01:20:39;;;;;;;13.80;5.47;;;;;;;;;;143725;617;47022;-61
2021/12/03 01:23:07;;;;;;;10.27;4.95;;;;;;;;;;143725;630;47012;-59
2021/12/03 01:25:35;;;;;;;12.55;4.80;;;;;;;;;;143729;673;45020;-60
2021/12/03 01:28:03;;;;;;;9.57;4.62;;;;;;;;;;143728;631;46020;-61
2021/12/03 01:30:32;;;;;;;8.65;4.70;;;;;;;;;;143725;592;47021;-60
2021/12/03 01:33:01;;;;;;;11.85;4.93;;;;;;;;;;143725;586;47012;-60
2021/12/03 01:35:29;;;;;;;9.35;4.75;;;;;;;;;;143729;589;45020;-59
2021/12/03 01:37:56;;;;;;;9.02;4.55;;;;;;;;;;143726;635;46021;-60
2021/12/03 01:40:25;;;;;;;10.15;4.97;;;;;;;;;;143724;618;47022;-60
2021/12/03 01:42:53;;;;;;;10.10;4.68;;;;;;;;;;143728;569;47013;-60
2021/12/03 01:45:24;;;;;;;11.77;4.72;;;;;;;;;;143726;575;46021;-60
2021/12/03 01:47:52;;;;;;;8.43;4.70;;;;;;;;;;143729;590;46012;-60
2021/12/03 01:50:25;;;;;;;7.60;4.90;;;;;;;;;;143724;619;47022;-61
2021/12/03 01:52:52;;;;;;;12.18;4.78;;;;;;;;;;143725;625;47012;-59
2021/12/03 01:55:19;;;;;;;9.30;5.15;;;;;;;;;;143727;579;45020;-61
2021/12/03 01:57:46;;;;;;;15.13;4.87;;;;;;;;;;143728;593;46013;-59
2021/12/03 02:00:22;;;;;;;10.32;4.90;;;;;;;;;;143724;605;47023;-61
2021/12/03 02:02:49;;;;;;;9.73;4.28;;;;;;;;;;143725;581;47012;-61
2021/12/03 02:05:16;;;;;;;9.73;4.82;;;;;;;;;;143755;577;45909;-60
2021/12/03 02:07:44;;;;;;;9.93;4.53;;;;;;;;;;143757;569;45021;-60
2021/12/03 02:10:12;;;;;;;12.77;4.12;;;;;;;;;;143755;634;46020;-61
2021/12/03 02:12:39;;;;;;;10.50;4.22;;;;;;;;;;143756;674;45012;-60
2021/12/03 02:15:07;;;;;;;10.55;4.60;;;;;;;;;;143755;592;45021;-60
2021/12/03 02:17:34;;;;;;;6.70;4.05;;;;;;;;;;143757;583;45020;-59
2021/12/03 02:20:02;;;;;;;12.32;5.00;;;;;;;;;;143754;619;46020;-61
2021/12/03 02:22:29;;;;;;;8.85;4.18;;;;;;;;;;143752;564;46012;-59
2021/12/03 02:24:56;;;;;;;11.60;4.82;;;;;;;;;;143752;639;46909;-61
2021/12/03 02:27:23;;;;;;;11.32;4.30;;;;;;;;;;143758;585;45020;-61
2021/12/03 02:29:50;;;;;;;15.10;4.78;;;;;;;;;;143754;570;46021;-60
2021/12/03 02:32:17;;;;;;;10.68;4.22;;;;;;;;;;143753;620;46025;-61
2021/12/03 02:34:44;;;;;;;8.27;4.65;;;;;;;;;;143754;565;45875;-59
2021/12/03 02:37:11;;;;;;;13.07;4.68;;;;;;;;;;143758;565;45021;-61
2021/12/03 02:39:38;;;;;;;9.38;3.95;;;;;;;;;;143753;581;46022;-60
2021/12/03 02:42:05;;;;;;;13.02;4.10;;;;;;;;;;143753;599;46027;-62
2021/12/03 02:44:32;;;;;;;12.43;4.93;;;;;;;;;;143751;629;45910;-59
2021/12/03 02:46:59;;;;;;;12.57;4.70;;;;;;;;;;143757;612;45024;-61
2021/12/03 02:49:26;;;;;;;11.95;4.93;;;;;;;;;;143752;565;46022;-61
2021/12/03 02:51:53;;;;;;;8.38;3.97;;;;;;;;;;143753;652;46012;-61
2021/12/03 02:54:20;;;;;;;12.50;4.45;;;;;;;;;;143754;564;45909;-61
2021/12/03 02:56:47;;;;;;;9.88;4.75;;;;;;;;;;143757;564;45020;-59
2021/12/03 02:59:15;;;;;;;12.55;4.60;;;;;;;;;;143754;621;46021;-60
2021/12/03 03:01:42;;;;;;;11.15;4.22;;;;;;;;;;143755;573;45012;-59
2021/12/03 03:04:09;;;;;;;11.88;4.40;;;;;;;;;;143740;602;45020;-59
2021/12/03 03:06:36;;;;;;;11.43;4.75;;;;;;;;;;143729;566;46012;-62
2021/12/03 03:09:07;;;;;;;7.97;3.92;;;;;;;;;;143725;619;46910;-60
2021/12/03 03:11:35;;;;;;;10.48;4.43;;;;;;;;;;143724;593;47012;-59
2021/12/03 03:14:03;;;;;;;13.65;5.75;;;;;;;;;;143727;702;46020;-61
2021/12/03 03:16:30;;;;;;;8.20;4.43;;;;;;;;;;143730;569;46020;-61
2021/12/03 03:18:58;;;;;;;8.57;4.12;;;;;;;;;;143725;566;47022;-62
2021/12/03 03:21:26;;;;;;;10.13;4.30;;;;;;;;;;143727;699;46013;-60
2021/12/03 03:23:53;;;;;;;8.10;4.30;;;;;;;;;;143728;586;45020;-59
2021/12/03 03:26:21;;;;;;;10.48;4.40;;;;;;;;;;143729;569;47012;-61
2021/12/03 03:28:48;;;;;;;11.90;4.47;;;;;;;;;;143721;660;47022;-59
2021/12/03 03:31:15;;;;;;;12.15;4.05;;;;;;;;;;143721;587;47012;-61
2021/12/03 03:33:42;;;;;;;8.88;4.62;;;;;;;;;;143728;578;45909;-60
2021/12/03 03:36:09;;;;;;;12.85;4.55;;;;;;;;;;143728;640;46020;-60
2021/12/03 03:38:36;;;;;;;15.95;5.43;;;;;;;;;;143723;578;47020;-59
2021/12/03 03:41:03;;;;;;;13.95;4.30;;;;;;;;;;143726;603;46028;-61
2021/12/03 03:43:30;;;;;;;8.55;4.35;;;;;;;;;;143728;594;46021;-61
2021/12/03 03:45:57;;;;;;;7.87;4.93;;;;;;;;;;143729;616;46012;-60
2021/12/03 03:48:25;;;;;;;11.45;5.37;;;;;;;;;;143724;587;47022;-59
2021/12/03 03:50:52;;;;;;;11.25;4.62;;;;;;;;;;143725;585;47012;-61
2021/12/03 03:53:19;;;;;;;16.67;4.87;;;;;;;;;;143728;678;45021;-61
2021/12/03 03:55:46;;;;;;;8.52;4.55;;;;;;;;;;143727;565;46020;-59
2021/12/03 03:58:13;;;;;;;14.13;5.37;;;;;;;;;;143725;589;47021;-61
2021/12/03 04:00:43;;;;;;;16.20;4.78;;;;;;;;;;143725;617;47012;-60
2021/12/03 04:03:11;;;;;;;12.05;4.35;;;;;;;;;;143729;565;45020;-60
2021/12/03 04:05:38;;;;;;;6.32;4.05;;;;;;;;;;143730;642;46013;-60
2021/12/03 04:08:06;;;;;;;11.27;4.60;;;;;;;;;;143726;578;47020;-60
2021/12/03 04:10:33;;;;;;;9.18;4.50;;;;;;;;;;143724;708;47012;-59
2021/12/03 04:13:00;;;;;;;9.45;4.37;;;;;;;;;;143729;573;45021;-61
2021/12/03 04:15:28;;;;;;;18.67;4.55;;;;;;;;;;143729;589;46020;-61
2021/12/03 04:17:55;;;;;;;9.40;5.53;;;;;;;;;;143725;602;47020;-61
2021/12/03 04:20:22;;;;;;;14.25;5.00;;;;;;;;;;143724;564;47012;-61
2021/12/03 04:22:50;;;;;;;11.93;4.30;;;;;;;;;;143727;579;45021;-59
2021/12/03 04:25:19;;;;;;;14.93;5.53;;;;;;;;;;143729;620;46020;-61
2021/12/03 04:27:47;;;;;;;10.73;4.80;;;;;;;;;;143726;585;47021;-61
2021/12/03 04:30:23;;;;;;;13.40;5.93;;;;;;;;;;143726;645;47012;-60
2021/12/03 04:32:51;;;;;;;12.37;5.20;;;;;;;;;;143726;630;46020;-60
2021/12/03 04:35:19;;;;;;;11.57;4.95;;;;;;;;;;143730;570;46013;-59
2021/12/03 04:37:46;;;;;;;7.78;4.70;;;;;;;;;;143725;582;47020;-61
2021/12/03 04:40:15;;;;;;;14.73;5.62;;;;;;;;;;143725;565;47012;-61
2021/12/03 04:42:43;;;;;;;11.43;4.97;;;;;;;;;;143726;672;45909;-61
2021/12/03 04:45:12;;;;;;;11.00;5.05;;;;;;;;;;143728;636;46021;-60
2021/12/03 04:47:39;;;;;;;11.90;5.00;;;;;;;;;;143724;591;47020;-60
2021/12/03 04:50:08;;;;;;;11.75;4.95;;;;;;;;;;143724;570;47012;-61
2021/12/03 04:52:35;;;;;;;22.23;6.00;;;;;;;;;;143729;621;45021;-61
2021/12/03 04:55:03;;;;;;;12.57;6.07;;;;;;;;;;143730;634;46020;-59
2021/12/03 04:57:30;;;;;;;13.18;6.35;;;;;;;;;;143725;586;47021;-61
2021/12/03 04:59:57;;;;;;;11.93;5.30;;;;;;;;;;143726;600;46012;-62
2021/12/03 05:02:26;;;;;;;19.60;6.07;;;;;;;;;;143728;585;46014;-61
2021/12/03 05:04:55;;;;;;;14.38;6.05;;;;;;;;;;143742;554;45031;-60
2021/12/03 05:07:52;;;;;;;11.70;5.28;;;;;;;;;;143738;583;47021;-61
2021/12/03 05:10:18;;;;;;;9.27;4.62;;;;;;;;;;143734;567;46923;-60
2021/12/03 05:12:45;;;;;;;9.68;4.87;;;;;;;;;;143739;585;45914;-59
2021/12/03 05:15:12;;;;;;;13.55;4.95;;;;;;;;;;143744;700;45018;-62
2021/12/03 05:17:39;;;;;;;14.02;4.78;;;;;;;;;;143738;566;47026;-61
2021/12/03 05:20:07;;;;;;;11.90;4.90;;;;;;;;;;143740;588;47012;-59
2021/12/03 05:22:34;;;;;;;10.13;5.20;;;;;;;;;;143741;631;45911;-59
2021/12/03 05:25:01;;;;;;;17.65;5.72;;;;;;;;;;143743;641;46020;-59
2021/12/03 05:27:28;;;;;;;12.48;4.47;;;;;;;;;;143739;639;47022;-61
2021/12/03 05:29:55;;;;;;;11.88;4.35;;;;;;;;;;143740;585;47012;-60
2021/12/03 05:32:21;;;;;;;12.07;5.32;;;;;;;;;;143740;682;46020;-62
2021/12/03 05:34:49;;;;;;;11.52;5.47;;;;;;;;;;143742;649;45021;-59
2021/12/03 05:37:16;;;;;;;8.63;4.20;;;;;;;;;;143740;587;47023;-61
2021/12/03 05:39:43;;;;;;;10.00;4.55;;;;;;;;;;143741;564;46030;-61
2021/12/03 05:42:10;;;;;;;10.05;4.10;;;;;;;;;;143741;655;45911;-61
2021/12/03 05:44:37;;;;;;;10.95;4.93;;;;;;;;;;143745;596;45021;-60
2021/12/03 05:47:04;;;;;;;9.73;5.05;;;;;;;;;;143740;573;47022;-59
2021/12/03 05:49:31;;;;;;;11.80;5.40;;;;;;;;;;143740;722;46919;-60
2021/12/03 05:51:58;;;;;;;10.48;4.57;;;;;;;;;;143742;581;45021;-62
2021/12/03 05:54:27;;;;;;;7.37;4.28;;;;;;;;;;143745;564;46020;-61
2021/12/03 05:56:55;;;;;;;7.57;4.25;;;;;;;;;;143739;591;47021;-61
2021/12/03 05:59:22;;;;;;;13.48;4.57;;;;;;;;;;143739;565;47012;-61
2021/12/03 06:01:49;;;;;;;8.82;4.00;;;;;;;;;;143738;608;45020;-59
2021/12/03 06:04:16;;;;;;;12.13;4.97;;;;;;;;;;143735;726;46020;-60
2021/12/03 06:06:43;;;;;;;10.65;4.25;;;;;;;;;;143725;637;47021;-59
2021/12/03 06:09:10;;;;;;;8.05;4.53;;;;;;;;;;143726;583;46012;-62
2021/12/03 06:11:38;;;;;;;12.50;4.45;;;;;;;;;;143728;567;45911;-60
2021/12/03 06:14:05;;;;;;;10.52;4.32;;;;;;;;;;143729;588;46021;-61
2021/12/03 06:16:32;;;;;;;12.25;4.15;;;;;;;;;;143726;663;47020;-61
2021/12/03 06:18:59;;;;;;;13.82;5.15;;;;;;;;;;143723;608;47015;-63
2021/12/03 06:21:26;;;;;;;9.38;4.30;;;;;;;;;;143727;575;46912;-62
2021/12/03 06:23:53;;;;;;;14.38;5.10;;;;;;;;;;143730;603;47010;-60
2021/12/03 06:26:20;;;;;;;10.27;4.37;;;;;;;;;;143726;564;47021;-62
2021/12/03 06:28:46;;;;;;;16.60;5.10;;;;;;;;;;143727;579;46013;-61
2021/12/03 06:31:13;;;;;;;12.35;5.68;;;;;;;;;;143727;569;45912;-60
2021/12/03 06:33:41;;;;;;;16.15;6.72;;;;;;;;;;143729;569;46020;-61
2021/12/03 06:36:09;;;;;;;33.22;16.23;;;;;;;;;;143726;575;47023;-61
2021/12/03 06:38:38;;;;;;;32.47;20.00;;;;;;;;;;143725;582;47012;-60
2021/12/03 06:41:07;;;;;;;21.30;12.05;;;;;;;;;;143728;671;46020;-61
2021/12/03 06:43:34;;;;;;;35.42;19.37;;;;;;;;;;143726;636;46021;-61
2021/12/03 06:46:01;;;;;;;40.55;22.00;;;;;;;;;;143726;570;47022;-62
2021/12/03 06:48:28;;;;;;;45.38;23.10;;;;;;;;;;143726;581;47012;-61
2021/12/03 06:50:55;;;;;;;42.90;24.05;;;;;;;;;;143728;609;45021;-61
2021/12/03 06:53:25;;;;;;;25.95;15.45;;;;;;;;;;143728;569;46020;-61
2021/12/03 06:55:57;;;;;;;32.75;15.55;;;;;;;;;;143725;602;47022;-61
2021/12/03 06:58:25;;;;;;;19.45;10.48;;;;;;;;;;143727;609;46012;-61
2021/12/03 07:00:54;;;;;;;31.98;12.68;;;;;;;;;;143729;606;45911;-61
2021/12/03 07:03:21;;;;;;;21.55;11.48;;;;;;;;;;143731;589;46020;-61
2021/12/03 07:05:49;;;;;;;21.08;9.73;;;;;;;;;;143724;609;47023;-61
2021/12/03 07:08:16;;;;;;;16.33;6.25;;;;;;;;;;143727;598;46012;-61
2021/12/03 07:10:43;;;;;;;14.80;7.45;;;;;;;;;;143730;607;45021;-60
2021/12/03 07:13:10;;;;;;;17.05;6.50;;;;;;;;;;143730;584;46021;-61
2021/12/03 07:15:37;;;;;;;13.15;5.40;;;;;;;;;;143727;582;47020;-62
2021/12/03 07:18:04;;;;;;;16.85;8.23;;;;;;;;;;143726;673;47012;-60
2021/12/03 07:20:32;;;;;;;17.27;7.57;;;;;;;;;;143731;592;45021;-61
2021/12/03 07:22:59;;;;;;;18.00;7.80;;;;;;;;;;143730;577;47010;-61
2021/12/03 07:25:26;;;;;;;19.80;8.80;;;;;;;;;;143726;569;47022;-61
2021/12/03 07:27:54;;;;;;;17.60;8.48;;;;;;;;;;143729;612;46012;-62
2021/12/03 07:30:22;;;;;;;15.68;7.90;;;;;;;;;;143729;580;46020;-62
2021/12/03 07:32:49;;;;;;;14.85;7.60;;;;;;;;;;143731;613;46020;-61
2021/12/03 07:35:17;;;;;;;15.85;6.95;;;;;;;;;;143728;604;47020;-61
2021/12/03 07:37:44;;;;;;;12.40;6.95;;;;;;;;;;143726;611;47012;-62
2021/12/03 07:40:13;;;;;;;20.80;7.22;;;;;;;;;;143729;609;46020;-62
2021/12/03 07:42:40;;;;;;;17.15;7.10;;;;;;;;;;143728;615;46021;-60
2021/12/03 07:45:09;;;;;;;18.02;7.75;;;;;;;;;;143726;604;47022;-62
2021/12/03 07:47:37;;;;;;;19.15;7.22;;;;;;;;;;143726;816;47012;-63
2021/12/03 07:50:06;;;;;;;18.42;7.12;;;;;;;;;;143730;623;45911;-62
2021/12/03 07:52:34;;;;;;;22.92;8.43;;;;;;;;;;143730;723;47010;-63
2021/12/03 07:55:02;;;;;;;25.73;9.35;;;;;;;;;;143727;564;47021;-61
2021/12/03 07:57:29;;;;;;;29.85;13.05;;;;;;;;;;143727;931;47012;-61
2021/12/03 07:59:56;;;;;;;37.55;17.50;;;;;;;;;;143730;572;45022;-61
2021/12/03 08:02:24;;;;;;;47.10;28.75;;;;;;;;;;143731;603;46012;-59
2021/12/03 08:04:51;;;;;;;26.60;14.40;;;;;;;;;;143726;601;47023;-60
2021/12/03 08:07:18;;;;;;;42.10;21.15;;;;;;;;;;143723;625;47012;-61
2021/12/03 08:09:45;;;;;;;36.38;17.98;;;;;;;;;;143731;663;45020;-60
2021/12/03 08:12:12;;;;;;;35.72;17.35;;;;;;;;;;143729;725;47010;-61
2021/12/03 08:14:39;;;;;;;35.42;13.85;;;;;;;;;;143727;579;47020;-61
2021/12/03 08:17:07;;;;;;;26.25;15.57;;;;;;;;;;143726;727;47012;-61
2021/12/03 08:19:34;;;;;;;15.77;6.62;;;;;;;;;;143731;690;45021;-60
2021/12/03 08:22:01;;;;;;;14.65;9.55;;;;;;;;;;143731;569;47010;-61
2021/12/03 08:24:28;;;;;;;22.62;10.60;;;;;;;;;;143729;653;47020;-62
2021/12/03 08:26:55;;;;;;;46.55;27.13;;;;;;;;;;143726;567;47013;-63
2021/12/03 08:29:22;;;;;;;25.15;13.60;;;;;;;;;;143729;644;45912;-59
2021/12/03 08:31:49;;;;;;;29.17;15.93;;;;;;;;;;143730;592;46020;-60
2021/12/03 08:34:16;;;;;;;25.60;11.20;;;;;;;;;;143724;616;50021;-61
2021/12/03 08:36:43;;;;;;;21.33;11.15;;;;;;;;;;143729;569;46012;-61
2021/12/03 08:39:10;;;;;;;20.15;10.68;;;;;;;;;;143731;565;45020;-60
2021/12/03 08:41:37;;;;;;;14.25;6.85;;;;;;;;;;143732;565;46020;-61
2021/12/03 08:44:05;;;;;;;15.43;6.18;;;;;;;;;;143727;612;47020;-61
2021/12/03 08:46:35;;;;;;;17.73;7.28;;;;;;;;;;143723;626;47031;-61
2021/12/03 08:49:16;;;;;;;13.23;6.47;;;;;;;;;;143729;566;46020;-60
2021/12/03 08:51:52;;;;;;;13.85;6.28;;;;;;;;;;143730;569;46020;-61
2021/12/03 08:57:04;;;;;;;11.60;5.93;;;;;;;;;;143728;590;47021;-61
2021/12/03 08:59:31;;;;;;;17.05;8.13;;;;;;;;;;143729;604;46020;-61
2021/12/03 09:01:58;;;;;;;13.85;8.45;;;;;;;;;;143731;617;46020;-61
2021/12/03 09:04:25;;;;;;;15.82;7.62;;;;;;;;;;143728;581;47021;-59
2021/12/03 09:06:52;;;;;;;11.90;6.45;;;;;;;;;;143726;569;47012;-61
2021/12/03 09:09:19;;;;;;;21.08;5.85;;;;;;;;;;143730;566;45020;-59
2021/12/03 09:11:46;;;;;;;23.25;7.37;;;;;;;;;;143731;584;46021;-61
2021/12/03 09:17:18;;;;;;;27.67;6.87;;;;;;;;;;143728;606;45920;-61
2021/12/03 09:22:45;;;;;;;20.27;5.45;;;;;;;;;;143731;586;46018;-61
2021/12/03 09:25:19;;;;;;;19.73;5.80;;;;;;;;;;143726;844;47021;-60
2021/12/03 09:27:46;;;;;;;14.00;5.75;;;;;;;;;;143726;583;47012;-62
2021/12/03 09:30:15;;;;;;;13.45;5.25;;;;;;;;;;143731;572;45020;-61
2021/12/03 09:32:48;;;;;;;14.07;5.62;;;;;;;;;;143731;564;45021;-59
2021/12/03 09:35:15;;;;;;;11.82;5.62;;;;;;;;;;143727;859;47023;-64
2021/12/03 09:37:41;;;;;;;44.08;24.12;;;;;;;;;;143729;603;46012;-63
2021/12/03 09:40:10;;;;;;;66.97;42.62;;;;;;;;;;143729;621;46020;-61
2021/12/03 09:42:38;;;;;;;32.35;14.70;;;;;;;;;;143732;610;46021;-63
2021/12/03 09:45:07;;;;;;;21.05;11.88;;;;;;;;;;143726;566;47020;-62
2021/12/03 09:47:34;;;;;;;21.58;8.75;;;;;;;;;;143726;564;47012;-62
2021/12/03 09:50:04;;;;;;;17.90;9.00;;;;;;;;;;143726;571;47012;-63
2021/12/03 09:52:39;;;;;;;13.73;7.68;;;;;;;;;;143732;571;46020;-62
2021/12/03 09:55:12;;;;;;;21.95;7.15;;;;;;;;;;143726;592;47022;-65
2021/12/03 09:57:44;;;;;;;15.10;6.87;;;;;;;;;;143728;583;47012;-64
2021/12/03 10:00:35;;;;;;;19.05;6.45;;;;;;;;;;143731;569;45020;-63
2021/12/03 10:03:12;;;;;;;20.23;6.45;;;;;;;;;;143729;572;46020;-61
2021/12/03 10:12:16;;;;;;;14.50;4.95;;;;;;;;;;143729;591;46014;-61
2021/12/03 10:14:50;;;;;;;9.82;4.18;;;;;;;;;;143731;564;47012;-59
2021/12/03 10:20:26;;;;;;;12.35;4.43;;;;;;;;;;143728;569;47012;-60
2021/12/03 10:35:25;;;;;;;16.23;4.18;;;;;;;;;;143730;620;46014;-60
2021/12/03 10:43:46;;;;;;;10.07;3.87;;;;;;;;;;143730;612;46012;-61
2021/12/03 10:46:43;;;;;;;14.57;3.70;;;;;;;;;;143731;605;45020;-59
2021/12/03 10:52:25;;;;;;;8.43;3.25;;;;;;;;;;143729;598;47012;-61
2021/12/03 10:57:58;;;;;;;11.00;3.70;;;;;;;;;;143729;634;47021;-59
2021/12/03 11:01:00;;;;;;;10.60;4.18;;;;;;;;;;143729;569;47012;-61
2021/12/03 11:04:03;;;;;;;12.23;4.25;;;;;;;;;;143722;576;48912;-59
2021/12/03 11:26:51;;;;;;;13.65;3.90;;;;;;;;;;143734;610;47021;-61
2021/12/03 11:37:50;;;;;;;9.65;4.05;;;;;;;;;;143729;605;46014;-61
2021/12/03 11:50:57;;;;;;;14.45;4.00;;;;;;;;;;143727;794;46021;-59
2021/12/03 12:23:31;;;;;;;16.55;8.88;;;;;;;;;;143729;588;46018;-61
2021/12/03 12:37:18;;;;;;;14.35;6.05;;;;;;;;;;143726;703;46014;-61
2021/12/03 12:57:56;;;;;;;;;;;;;;;;;;143735;981;46012;-60
2021/12/03 13:17:44;;;;;;;12.82;6.47;;;;;;;;;;143755;622;45024;-61
2021/12/03 13:22:53;;;;;;;15.20;6.93;;;;;;;;;;143756;604;44907;-60
2021/12/03 13:41:05;;;;;;;19.00;5.55;;;;;;;;;;143756;564;45021;-61
2021/12/03 14:04:54;;;;;;;22.87;7.05;;;;;;;;;;143746;589;45020;-60
2021/12/03 14:19:16;;;;;;;14.48;5.80;;;;;;;;;;143731;603;45021;-60
2021/12/03 14:21:48;;;;;;;9.98;5.55;;;;;;;;;;143727;615;47014;-60
2021/12/03 14:36:19;;;;;;;15.68;6.53;;;;;;;;;;143726;605;47020;-60
2021/12/03 14:38:46;;;;;;;13.77;6.37;;;;;;;;;;143728;647;46021;-60
2021/12/03 14:55:46;;;;;;;11.85;5.70;;;;;;;;;;143727;619;46014;-59
2021/12/03 14:58:22;;;;;;;15.88;6.45;;;;;;;;;;143725;614;46032;-60
2021/12/03 15:00:57;;;;;;;13.73;6.47;;;;;;;;;;143727;575;45021;-60
2021/12/03 15:06:31;;;;;;;14.23;6.18;;;;;;;;;;143727;585;46012;-60
2021/12/03 15:12:14;;;;;;;19.77;6.97;;;;;;;;;;143726;597;47020;-60
2021/12/03 15:15:19;;;;;;;10.68;5.53;;;;;;;;;;143730;694;46018;-60
2021/12/03 15:26:03;;;;;;;12.47;6.17;;;;;;;;;;143728;588;47020;-59
2021/12/03 15:34:33;;;;;;;21.85;8.27;;;;;;;;;;143727;587;47020;-60
2021/12/03 15:37:20;;;;;;;12.30;5.87;;;;;;;;;;143728;573;47020;-60
2021/12/03 15:40:16;;;;;;;11.07;5.68;;;;;;;;;;143725;564;47021;-60
2021/12/03 16:04:43;;;;;;;16.08;7.53;;;;;;;;;;143727;573;46020;-58
2021/12/03 16:07:38;;;;;;;15.68;6.85;;;;;;;;;;143728;632;45907;-58
2021/12/03 16:18:56;;;;;;;16.17;7.15;;;;;;;;;;143726;564;47020;-57
2021/12/03 16:24:43;;;;;;;21.30;8.13;;;;;;;;;;143728;572;45910;-57
2021/12/03 16:27:38;;;;;;;18.98;7.10;;;;;;;;;;143727;576;45917;-56
2021/12/03 16:55:04;;;;;;;16.92;6.00;;;;;;;;;;143728;564;47020;-55
2021/12/03 16:57:33;;;;;;;13.05;4.50;;;;;;;;;;143724;655;47022;-56
2021/12/03 17:00:13;;;;;;;15.95;5.53;;;;;;;;;;143723;607;47011;-57
2021/12/03 17:03:07;;;;;;;12.50;5.37;;;;;;;;;;143729;627;47010;-57
2021/12/03 17:11:47;;;;;;;13.15;5.65;;;;;;;;;;143755;577;45917;-57
2021/12/03 17:18:13;;;;;;;17.52;4.62;;;;;;;;;;143756;684;46010;-56
2021/12/03 17:29:10;;;;;;;13.57;5.40;;;;;;;;;;143757;613;46022;-56
2021/12/03 17:32:00;;;;;;;14.05;4.82;;;;;;;;;;143755;613;44908;-56
2021/12/03 17:51:07;;;;;;;12.55;4.35;;;;;;;;;;143758;605;45022;-57
2021/12/03 17:53:50;;;;;;;9.90;4.40;;;;;;;;;;143744;579;46044;-57
2021/12/03 17:56:20;;;;;;;10.52;4.35;;;;;;;;;;143742;577;46010;-56
2021/12/03 17:58:55;;;;;;;6.75;3.33;;;;;;;;;;143758;580;44018;-57
2021/12/03 18:01:36;;;;;;;9.70;3.70;;;;;;;;;;143757;570;45023;-57
2021/12/03 18:04:08;;;;;;;10.52;3.05;;;;;;;;;;143743;564;45020;-56
2021/12/03 18:06:54;;;;;;;7.05;3.45;;;;;;;;;;143726;633;46921;-55
2021/12/03 18:15:29;;;;;;;7.73;3.20;;;;;;;;;;143726;587;47019;-56
2021/12/03 18:48:39;;;;;;;5.50;2.22;;;;;;;;;;143729;598;46012;-55
2021/12/03 18:54:19;;;;;;;7.37;2.12;;;;;;;;;;143728;602;46019;-57
2021/12/03 18:56:53;;;;;;;3.72;2.42;;;;;;;;;;143730;572;46022;-56
2021/12/03 18:59:23;;;;;;;5.50;2.40;;;;;;;;;;143725;586;47019;-56
2021/12/03 19:01:51;;;;;;;5.45;3.08;;;;;;;;;;143724;570;47010;-56
2021/12/03 19:04:29;;;;;;;4.65;2.97;;;;;;;;;;143729;717;45018;-57
2021/12/03 19:07:12;;;;;;;8.18;3.12;;;;;;;;;;143729;665;46022;-55
2021/12/03 19:09:42;;;;;;;6.75;3.33;;;;;;;;;;143726;574;47021;-56
2021/12/03 19:12:12;;;;;;;11.57;3.28;;;;;;;;;;143725;590;47010;-57
2021/12/03 19:14:46;;;;;;;5.82;2.40;;;;;;;;;;143729;648;45019;-57
2021/12/03 19:17:14;;;;;;;4.65;2.35;;;;;;;;;;143730;741;46010;-56
2021/12/03 19:19:44;;;;;;;7.87;3.33;;;;;;;;;;143726;665;47018;-58
2021/12/03 19:22:12;;;;;;;6.40;3.37;;;;;;;;;;143724;577;47011;-57
2021/12/03 19:24:39;;;;;;;8.45;2.78;;;;;;;;;;143726;645;46019;-59
2021/12/03 19:27:08;;;;;;;6.43;2.67;;;;;;;;;;143730;596;46022;-60
2021/12/03 19:29:36;;;;;;;4.87;2.25;;;;;;;;;;143727;622;47019;-59
2021/12/03 19:32:03;;;;;;;5.87;2.83;;;;;;;;;;143725;596;47010;-60
2021/12/03 19:34:30;;;;;;;3.87;1.92;;;;;;;;;;143727;588;46018;-61
2021/12/03 19:36:58;;;;;;;7.37;2.47;;;;;;;;;;143731;564;46022;-61
2021/12/03 19:39:25;;;;;;;4.45;1.85;;;;;;;;;;143727;646;47018;-60
2021/12/03 19:45:01;;;;;;;3.62;2.03;;;;;;;;;;143728;572;47018;-60
2021/12/03 19:47:45;;;;;;;4.45;2.25;;;;;;;;;;143732;607;46010;-60
2021/12/03 19:55:50;;;;;;;5.90;2.67;;;;;;;;;;143729;574;47018;-61
2021/12/03 19:58:17;;;;;;;5.40;2.20;;;;;;;;;;143731;570;46022;-62
2021/12/03 20:00:46;;;;;;;5.65;2.33;;;;;;;;;;143726;581;47021;-62
2021/12/03 20:03:13;;;;;;;7.62;3.15;;;;;;;;;;143727;586;47010;-61
2021/12/03 20:05:40;;;;;;;7.45;2.47;;;;;;;;;;143722;586;47013;-63
2021/12/03 20:08:08;;;;;;;5.97;3.03;;;;;;;;;;143731;591;46011;-63
2021/12/03 20:10:46;;;;;;;4.45;2.78;;;;;;;;;;143727;579;47020;-62
2021/12/03 20:13:13;;;;;;;4.57;3.03;;;;;;;;;;143726;698;47011;-61
2021/12/03 20:18:49;;;;;;;7.60;3.50;;;;;;;;;;143730;578;47010;-63
2021/12/03 20:21:18;;;;;;;4.03;3.10;;;;;;;;;;143728;644;47018;-61
2021/12/03 20:35:23;;;;;;;7.00;2.78;;;;;;;;;;143730;628;46010;-62
2021/12/03 20:37:50;;;;;;;5.28;3.12;;;;;;;;;;143730;585;45908;-61
2021/12/03 20:40:28;;;;;;;8.38;3.50;;;;;;;;;;143731;698;46022;-61
2021/12/03 20:45:57;;;;;;;5.87;2.97;;;;;;;;;;143731;574;46010;-60
2021/12/03 20:51:32;;;;;;;5.75;3.40;;;;;;;;;;143731;566;47022;-60
2021/12/03 21:08:23;;;;;;;8.13;3.75;;;;;;;;;;143729;610;46010;-59
2021/12/03 21:11:02;;;;;;;6.72;3.12;;;;;;;;;;143729;576;46018;-60
2021/12/03 21:13:48;;;;;;;2.20;2.00;;;;;;;;;;143728;584;47011;-60
2021/12/03 21:16:48;;;;;;;4.82;3.00;;;;;;;;;;143726;579;47018;-60
2021/12/03 21:19:33;;;;;;;6.15;2.80;;;;;;;;;;143729;584;46010;-60
2021/12/03 21:22:08;;;;;;;4.80;3.17;;;;;;;;;;143726;600;47019;-60
2021/12/03 21:24:39;;;;;;;6.12;2.90;;;;;;;;;;143731;608;46010;-59
2021/12/03 21:27:11;;;;;;;8.80;2.65;;;;;;;;;;143725;614;47018;-60
2021/12/03 21:30:00;;;;;;;6.32;3.75;;;;;;;;;;143729;593;46052;-59
2021/12/03 21:32:37;;;;;;;11.55;5.80;;;;;;;;;;143730;575;45907;-60
2021/12/03 21:43:35;;;;;;;7.05;4.40;;;;;;;;;;143729;578;46019;-61
2021/12/03 21:46:02;;;;;;;6.75;3.90;;;;;;;;;;143730;607;46023;-59
2021/12/03 21:48:29;;;;;;;6.80;3.42;;;;;;;;;;143727;585;47018;-61
2021/12/03 21:50:56;;;;;;;4.28;3.28;;;;;;;;;;143727;629;47010;-60
2021/12/03 21:53:22;;;;;;;3.85;2.83;;;;;;;;;;143727;608;47018;-60
2021/12/03 21:55:49;;;;;;;6.18;3.00;;;;;;;;;;143731;708;46010;-59
2021/12/03 21:58:17;;;;;;;3.67;2.25;;;;;;;;;;143726;601;47019;-60
2021/12/03 22:00:44;;;;;;;4.78;2.58;;;;;;;;;;143728;586;46010;-61
2021/12/03 22:03:11;;;;;;;3.30;2.22;;;;;;;;;;143731;599;45018;-60
2021/12/03 22:05:38;;;;;;;2.55;2.12;;;;;;;;;;143730;597;46022;-60
2021/12/03 22:08:09;;;;;;;4.15;2.45;;;;;;;;;;143728;576;47017;-60
2021/12/03 22:10:37;;;;;;;4.25;2.12;;;;;;;;;;143727;592;47010;-60
2021/12/03 22:13:04;;;;;;;1.70;1.58;;;;;;;;;;143727;611;45910;-61